コロンボ の空港の天気 - METARとTAF

バンダラナイケ国際空港 ( VCBI / CMB ) - スリランカ コロンボ
飛行場実況気象(Metar)
観測時間06/23 05:40 IST (06/23 00:10 UTC)
風向・風速南南西 7m/s
視程8000m
天気現象雷雨
少しの雲 雲底高度 370m
全天の4割程度の雲 雲底高度 490m
少しの雲 雲底高度 550m
気温24℃
湿度89%
気圧1010hPa
METARVCBI 230010Z 21013KT 8000 TSRA FEW012 SCT016 FEW018CB 24/22 Q1010 NOSIG RMK N/NE/SE/S/SW
過去の天気等 Google飛行場航空写真 Wunderground天気予報

過去48時間のMETAR

飛行場予報(TAF)
発表時間: 6/23 03:10 IST (6/22 21:40 UTC)
予報対象時間: 23日5時 IST ~ 24日11時 IST
風向・風速南西 6m/s
視程10km以上
全天の4割程度の雲 雲底高度 490m
23日5時 IST ~ 23日8時 IST に 確率 40% で一時的に
TAF VCBI 222140Z 2300/2406 22012KT 9999 SCT016 TX30/2307Z TN27/2300Z
PROB40 TEMPO 2300/2303 2310/2316 6000 -SHRA FEW012 BKN016 FEW020CB